sensor_id;sensor_type;location;lat;lon;timestamp;P1;durP1;ratioP1;P2;durP2;ratioP2
18867;SDS011;9563;49.240;9.088;2023-11-21T05:02:35;4.97;;;1.73;;
18867;SDS011;9563;49.240;9.088;2023-11-21T05:05:03;2.03;;;1.30;;
18867;SDS011;9563;49.240;9.088;2023-11-21T05:07:31;3.73;;;1.90;;
18867;SDS011;9563;49.240;9.088;2023-11-21T05:10:00;5.53;;;2.20;;
18867;SDS011;9563;49.240;9.088;2023-11-21T05:12:30;3.20;;;1.60;;
18867;SDS011;9563;49.240;9.088;2023-11-21T05:14:58;2.73;;;1.80;;
18867;SDS011;9563;49.240;9.088;2023-11-21T05:17:25;3.53;;;1.70;;
18867;SDS011;9563;49.240;9.088;2023-11-21T05:19:53;4.47;;;1.93;;
18867;SDS011;9563;49.240;9.088;2023-11-21T05:22:20;7.23;;;1.83;;
18867;SDS011;9563;49.240;9.088;2023-11-21T05:24:46;4.03;;;1.70;;
18867;SDS011;9563;49.240;9.088;2023-11-21T05:27:13;3.17;;;2.20;;
18867;SDS011;9563;49.240;9.088;2023-11-21T05:29:41;6.70;;;2.63;;
18867;SDS011;9563;49.240;9.088;2023-11-21T05:32:07;8.10;;;2.53;;
18867;SDS011;9563;49.240;9.088;2023-11-21T05:34:34;7.47;;;2.33;;
18867;SDS011;9563;49.240;9.088;2023-11-21T05:37:03;4.37;;;2.93;;
18867;SDS011;9563;49.240;9.088;2023-11-21T05:39:30;8.10;;;3.20;;
18867;SDS011;9563;49.240;9.088;2023-11-21T05:41:57;3.23;;;2.13;;
18867;SDS011;9563;49.240;9.088;2023-11-21T05:44:25;5.53;;;2.37;;
18867;SDS011;9563;49.240;9.088;2023-11-21T05:46:51;6.17;;;2.27;;
18867;SDS011;9563;49.240;9.088;2023-11-21T05:49:18;6.43;;;2.43;;
18867;SDS011;9563;49.240;9.088;2023-11-21T05:51:46;9.37;;;2.70;;
18867;SDS011;9563;49.240;9.088;2023-11-21T05:54:15;4.83;;;1.93;;
18867;SDS011;9563;49.240;9.088;2023-11-21T05:56:42;2.97;;;2.10;;
18867;SDS011;9563;49.240;9.088;2023-11-21T05:59:09;2.83;;;1.40;;
18867;SDS011;9563;49.240;9.088;2023-11-21T06:01:36;4.43;;;2.27;;
18867;SDS011;9563;49.240;9.088;2023-11-21T06:04:04;3.77;;;2.10;;
18867;SDS011;9563;49.240;9.088;2023-11-21T06:06:33;3.33;;;2.13;;
18867;SDS011;9563;49.240;9.088;2023-11-21T06:09:00;4.93;;;3.40;;
18867;SDS011;9563;49.240;9.088;2023-11-21T06:11:28;7.67;;;2.90;;
18867;SDS011;9563;49.240;9.088;2023-11-21T06:13:55;4.03;;;2.90;;
18867;SDS011;9563;49.240;9.088;2023-11-21T06:16:22;5.67;;;3.10;;
18867;SDS011;9563;49.240;9.088;2023-11-21T06:18:49;4.63;;;2.77;;
18867;SDS011;9563;49.240;9.088;2023-11-21T06:21:16;6.87;;;2.50;;
18867;SDS011;9563;49.240;9.088;2023-11-21T06:23:43;4.40;;;2.53;;
18867;SDS011;9563;49.240;9.088;2023-11-21T06:26:10;4.47;;;2.50;;
18867;SDS011;9563;49.240;9.088;2023-11-21T06:28:39;5.27;;;2.57;;
18867;SDS011;9563;49.240;9.088;2023-11-21T06:31:06;4.97;;;2.27;;
18867;SDS011;9563;49.240;9.088;2023-11-21T06:33:33;2.67;;;1.93;;
18867;SDS011;9563;49.240;9.088;2023-11-21T06:36:00;4.60;;;1.70;;
18867;SDS011;9563;49.240;9.088;2023-11-21T06:38:27;5.67;;;2.03;;
18867;SDS011;9563;49.240;9.088;2023-11-21T06:40:58;5.90;;;1.90;;
18867;SDS011;9563;49.240;9.088;2023-11-21T06:43:29;2.33;;;1.90;;
18867;SDS011;9563;49.240;9.088;2023-11-21T06:45:58;6.47;;;2.17;;
18867;SDS011;9563;49.240;9.088;2023-11-21T06:48:25;4.97;;;1.77;;
18867;SDS011;9563;49.240;9.088;2023-11-21T06:50:51;4.50;;;2.00;;
18867;SDS011;9563;49.240;9.088;2023-11-21T06:53:18;3.93;;;1.63;;
18867;SDS011;9563;49.240;9.088;2023-11-21T06:55:45;2.90;;;1.50;;
18867;SDS011;9563;49.240;9.088;2023-11-21T06:58:12;2.50;;;1.50;;
18867;SDS011;9563;49.240;9.088;2023-11-21T07:00:40;4.70;;;1.73;;
18867;SDS011;9563;49.240;9.088;2023-11-21T07:03:13;2.90;;;2.10;;
18867;SDS011;9563;49.240;9.088;2023-11-21T07:05:45;4.60;;;2.47;;
18867;SDS011;9563;49.240;9.088;2023-11-21T07:08:12;4.27;;;2.53;;
18867;SDS011;9563;49.240;9.088;2023-11-21T07:10:39;3.77;;;2.50;;
18867;SDS011;9563;49.240;9.088;2023-11-21T07:13:06;5.47;;;2.57;;
18867;SDS011;9563;49.240;9.088;2023-11-21T07:15:37;5.00;;;2.93;;
18867;SDS011;9563;49.240;9.088;2023-11-21T07:18:06;4.53;;;2.47;;
18867;SDS011;9563;49.240;9.088;2023-11-21T07:20:37;6.07;;;2.50;;
18867;SDS011;9563;49.240;9.088;2023-11-21T07:23:04;3.03;;;2.20;;
18867;SDS011;9563;49.240;9.088;2023-11-21T07:25:31;5.43;;;2.47;;
18867;SDS011;9563;49.240;9.088;2023-11-21T07:27:58;6.73;;;2.73;;
18867;SDS011;9563;49.240;9.088;2023-11-21T07:30:26;6.47;;;3.33;;
18867;SDS011;9563;49.240;9.088;2023-11-21T07:32:53;4.10;;;2.90;;
18867;SDS011;9563;49.240;9.088;2023-11-21T07:35:20;4.17;;;3.00;;
18867;SDS011;9563;49.240;9.088;2023-11-21T07:37:48;6.73;;;3.57;;
18867;SDS011;9563;49.240;9.088;2023-11-21T07:40:15;4.90;;;3.13;;
18867;SDS011;9563;49.240;9.088;2023-11-21T07:42:43;7.70;;;3.00;;
18867;SDS011;9563;49.240;9.088;2023-11-21T07:45:10;4.07;;;3.07;;
18867;SDS011;9563;49.240;9.088;2023-11-21T07:47:40;8.27;;;3.27;;
18867;SDS011;9563;49.240;9.088;2023-11-21T07:50:07;8.57;;;3.40;;
18867;SDS011;9563;49.240;9.088;2023-11-21T07:52:35;8.00;;;3.30;;
18867;SDS011;9563;49.240;9.088;2023-11-21T07:55:03;6.83;;;3.10;;
18867;SDS011;9563;49.240;9.088;2023-11-21T07:57:32;6.90;;;3.50;;
18867;SDS011;9563;49.240;9.088;2023-11-21T07:59:59;8.00;;;3.57;;
18867;SDS011;9563;49.240;9.088;2023-11-21T08:02:26;5.50;;;3.33;;
18867;SDS011;9563;49.240;9.088;2023-11-21T08:04:53;11.33;;;3.90;;
18867;SDS011;9563;49.240;9.088;2023-11-21T08:07:21;5.03;;;3.67;;
18867;SDS011;9563;49.240;9.088;2023-11-21T08:09:48;7.57;;;3.93;;
18867;SDS011;9563;49.240;9.088;2023-11-21T08:12:16;5.57;;;3.50;;
18867;SDS011;9563;49.240;9.088;2023-11-21T08:14:45;5.80;;;3.87;;
18867;SDS011;9563;49.240;9.088;2023-11-21T08:17:12;4.70;;;2.90;;
18867;SDS011;9563;49.240;9.088;2023-11-21T08:19:39;5.17;;;3.20;;
18867;SDS011;9563;49.240;9.088;2023-11-21T08:22:06;4.80;;;3.00;;
18867;SDS011;9563;49.240;9.088;2023-11-21T08:24:34;5.73;;;3.10;;
18867;SDS011;9563;49.240;9.088;2023-11-21T08:27:00;5.23;;;3.37;;
18867;SDS011;9563;49.240;9.088;2023-11-21T08:29:30;7.27;;;2.70;;
18867;SDS011;9563;49.240;9.088;2023-11-21T08:31:57;3.97;;;2.90;;
18867;SDS011;9563;49.240;9.088;2023-11-21T08:34:25;4.97;;;2.73;;
18867;SDS011;9563;49.240;9.088;2023-11-21T08:36:52;4.83;;;3.20;;
18867;SDS011;9563;49.240;9.088;2023-11-21T08:39:18;4.17;;;3.17;;
18867;SDS011;9563;49.240;9.088;2023-11-21T08:41:45;5.40;;;2.93;;
18867;SDS011;9563;49.240;9.088;2023-11-21T08:44:13;4.77;;;3.00;;
18867;SDS011;9563;49.240;9.088;2023-11-21T08:46:43;4.53;;;3.40;;
18867;SDS011;9563;49.240;9.088;2023-11-21T08:49:10;4.47;;;2.93;;
18867;SDS011;9563;49.240;9.088;2023-11-21T08:51:37;7.40;;;3.13;;
18867;SDS011;9563;49.240;9.088;2023-11-21T08:54:04;3.80;;;3.10;;
18867;SDS011;9563;49.240;9.088;2023-11-21T08:56:33;4.67;;;2.70;;
18867;SDS011;9563;49.240;9.088;2023-11-21T08:58:59;4.40;;;2.87;;
18867;SDS011;9563;49.240;9.088;2023-11-21T09:01:27;6.13;;;4.40;;
18867;SDS011;9563;49.240;9.088;2023-11-21T09:03:58;8.33;;;3.87;;
18867;SDS011;9563;49.240;9.088;2023-11-21T09:06:24;4.67;;;3.17;;
18867;SDS011;9563;49.240;9.088;2023-11-21T09:08:51;4.70;;;3.30;;
18867;SDS011;9563;49.240;9.088;2023-11-21T09:11:18;5.07;;;3.03;;
18867;SDS011;9563;49.240;9.088;2023-11-21T09:13:45;4.70;;;3.20;;
18867;SDS011;9563;49.240;9.088;2023-11-21T09:16:13;4.50;;;3.30;;
18867;SDS011;9563;49.240;9.088;2023-11-21T09:18:40;4.78;;;3.65;;
18867;SDS011;9563;49.240;9.088;2023-11-21T09:21:08;5.18;;;3.78;;
18867;SDS011;9563;49.240;9.088;2023-11-21T09:23:35;4.10;;;3.23;;
18867;SDS011;9563;49.240;9.088;2023-11-21T09:26:02;5.97;;;3.28;;
18867;SDS011;9563;49.240;9.088;2023-11-21T09:28:30;4.95;;;3.55;;
18867;SDS011;9563;49.240;9.088;2023-11-21T09:30:57;5.72;;;3.10;;
18867;SDS011;9563;49.240;9.088;2023-11-21T09:33:24;6.03;;;3.90;;
18867;SDS011;9563;49.240;9.088;2023-11-21T09:35:51;3.90;;;3.00;;
18867;SDS011;9563;49.240;9.088;2023-11-21T09:38:19;6.23;;;4.00;;
18867;SDS011;9563;49.240;9.088;2023-11-21T09:40:45;6.57;;;4.10;;
18867;SDS011;9563;49.240;9.088;2023-11-21T09:43:15;7.63;;;4.67;;
18867;SDS011;9563;49.240;9.088;2023-11-21T09:45:44;16.75;;;5.68;;
18867;SDS011;9563;49.240;9.088;2023-11-21T09:48:13;8.20;;;5.15;;
18867;SDS011;9563;49.240;9.088;2023-11-21T09:50:42;6.70;;;4.47;;
18867;SDS011;9563;49.240;9.088;2023-11-21T09:53:11;6.88;;;4.28;;
18867;SDS011;9563;49.240;9.088;2023-11-21T09:55:43;7.50;;;4.13;;
18867;SDS011;9563;49.240;9.088;2023-11-21T09:58:11;6.15;;;4.28;;
18867;SDS011;9563;49.240;9.088;2023-11-21T10:00:40;6.55;;;3.75;;
18867;SDS011;9563;49.240;9.088;2023-11-21T10:03:08;6.57;;;3.83;;
18867;SDS011;9563;49.240;9.088;2023-11-21T10:05:38;4.85;;;3.17;;
18867;SDS011;9563;49.240;9.088;2023-11-21T10:08:07;6.05;;;3.13;;
18867;SDS011;9563;49.240;9.088;2023-11-21T10:10:35;3.85;;;2.17;;
18867;SDS011;9563;49.240;9.088;2023-11-21T10:13:05;1.75;;;1.30;;
18867;SDS011;9563;49.240;9.088;2023-11-21T10:15:33;0.88;;;0.70;;
18867;SDS011;9563;49.240;9.088;2023-11-21T10:18:02;0.90;;;0.73;;
18867;SDS011;9563;49.240;9.088;2023-11-21T10:20:29;1.23;;;0.63;;
18867;SDS011;9563;49.240;9.088;2023-11-21T10:22:58;2.67;;;0.60;;
18867;SDS011;9563;49.240;9.088;2023-11-21T10:25:27;0.63;;;0.50;;
18867;SDS011;9563;49.240;9.088;2023-11-21T10:27:56;0.77;;;0.60;;
18867;SDS011;9563;49.240;9.088;2023-11-21T10:30:29;1.85;;;0.70;;
18867;SDS011;9563;49.240;9.088;2023-11-21T10:33:02;1.53;;;0.73;;
18867;SDS011;9563;49.240;9.088;2023-11-21T10:35:38;0.70;;;0.60;;
18867;SDS011;9563;49.240;9.088;2023-11-21T10:38:11;0.87;;;0.73;;
18867;SDS011;9563;49.240;9.088;2023-11-21T10:40:39;1.27;;;0.80;;
18867;SDS011;9563;49.240;9.088;2023-11-21T10:43:07;1.67;;;0.80;;
18867;SDS011;9563;49.240;9.088;2023-11-21T10:45:36;1.00;;;0.90;;
18867;SDS011;9563;49.240;9.088;2023-11-21T10:48:04;3.65;;;1.00;;
18867;SDS011;9563;49.240;9.088;2023-11-21T10:50:33;1.52;;;1.00;;
18867;SDS011;9563;49.240;9.088;2023-11-21T10:53:01;4.60;;;1.30;;
18867;SDS011;9563;49.240;9.088;2023-11-21T10:55:29;3.20;;;1.27;;
18867;SDS011;9563;49.240;9.088;2023-11-21T10:57:57;3.93;;;1.47;;
18867;SDS011;9563;49.240;9.088;2023-11-21T11:00:26;6.47;;;1.88;;
18867;SDS011;9563;49.240;9.088;2023-11-21T11:02:55;16.90;;;4.60;;
18867;SDS011;9563;49.240;9.088;2023-11-21T11:05:24;9.17;;;3.10;;
18867;SDS011;9563;49.240;9.088;2023-11-21T11:07:56;2.80;;;1.40;;
18867;SDS011;9563;49.240;9.088;2023-11-21T11:10:26;4.47;;;2.17;;
18867;SDS011;9563;49.240;9.088;2023-11-21T11:12:54;1.83;;;1.30;;
18867;SDS011;9563;49.240;9.088;2023-11-21T11:15:22;2.17;;;1.30;;
18867;SDS011;9563;49.240;9.088;2023-11-21T11:17:50;1.15;;;0.90;;
18867;SDS011;9563;49.240;9.088;2023-11-21T11:20:18;1.20;;;1.10;;
18867;SDS011;9563;49.240;9.088;2023-11-21T11:22:48;2.65;;;1.73;;
18867;SDS011;9563;49.240;9.088;2023-11-21T11:25:29;1.40;;;1.00;;
18867;SDS011;9563;49.240;9.088;2023-11-21T11:28:04;1.17;;;0.98;;
18867;SDS011;9563;49.240;9.088;2023-11-21T11:30:38;1.58;;;1.10;;
18867;SDS011;9563;49.240;9.088;2023-11-21T11:33:12;1.87;;;0.90;;
18867;SDS011;9563;49.240;9.088;2023-11-21T11:35:53;2.47;;;1.33;;
18867;SDS011;9563;49.240;9.088;2023-11-21T11:38:30;3.50;;;1.43;;
18867;SDS011;9563;49.240;9.088;2023-11-21T11:41:00;3.50;;;1.60;;
18867;SDS011;9563;49.240;9.088;2023-11-21T11:43:29;1.30;;;1.13;;
18867;SDS011;9563;49.240;9.088;2023-11-21T11:46:09;1.10;;;1.00;;
18867;SDS011;9563;49.240;9.088;2023-11-21T11:48:38;2.67;;;1.98;;
18867;SDS011;9563;49.240;9.088;2023-11-21T11:51:09;2.25;;;1.10;;
18867;SDS011;9563;49.240;9.088;2023-11-21T11:53:40;1.60;;;1.10;;
18867;SDS011;9563;49.240;9.088;2023-11-21T11:56:24;1.45;;;1.08;;
18867;SDS011;9563;49.240;9.088;2023-11-21T11:58:53;2.15;;;1.00;;
18867;SDS011;9563;49.240;9.088;2023-11-21T12:01:21;1.30;;;0.73;;
18867;SDS011;9563;49.240;9.088;2023-11-21T12:06:57;2.95;;;1.10;;
18867;SDS011;9563;49.240;9.088;2023-11-21T12:09:29;1.10;;;0.93;;
18867;SDS011;9563;49.240;9.088;2023-11-21T12:11:57;1.13;;;0.85;;
18867;SDS011;9563;49.240;9.088;2023-11-21T12:14:25;1.45;;;1.00;;
18867;SDS011;9563;49.240;9.088;2023-11-21T12:16:52;1.65;;;1.13;;
18867;SDS011;9563;49.240;9.088;2023-11-21T12:19:20;7.35;;;1.63;;
18867;SDS011;9563;49.240;9.088;2023-11-21T12:21:48;2.67;;;1.58;;
18867;SDS011;9563;49.240;9.088;2023-11-21T12:24:16;2.78;;;1.88;;
18867;SDS011;9563;49.240;9.088;2023-11-21T12:26:44;2.53;;;1.83;;
18867;SDS011;9563;49.240;9.088;2023-11-21T12:29:11;1.42;;;1.30;;
18867;SDS011;9563;49.240;9.088;2023-11-21T12:31:38;3.90;;;2.08;;
18867;SDS011;9563;49.240;9.088;2023-11-21T12:34:05;2.63;;;1.70;;
18867;SDS011;9563;49.240;9.088;2023-11-21T12:36:34;2.00;;;1.70;;
18867;SDS011;9563;49.240;9.088;2023-11-21T12:39:01;4.97;;;2.20;;
18867;SDS011;9563;49.240;9.088;2023-11-21T12:41:30;2.83;;;1.73;;
18867;SDS011;9563;49.240;9.088;2023-11-21T12:43:57;5.18;;;3.10;;
18867;SDS011;9563;49.240;9.088;2023-11-21T12:46:24;4.05;;;2.40;;
18867;SDS011;9563;49.240;9.088;2023-11-21T12:48:54;2.47;;;2.17;;
18867;SDS011;9563;49.240;9.088;2023-11-21T12:51:21;9.15;;;2.60;;
18867;SDS011;9563;49.240;9.088;2023-11-21T12:53:48;3.40;;;2.97;;
18867;SDS011;9563;49.240;9.088;2023-11-21T12:56:16;4.80;;;3.03;;
18867;SDS011;9563;49.240;9.088;2023-11-21T12:58:49;4.55;;;2.58;;
18867;SDS011;9563;49.240;9.088;2023-11-21T13:01:22;6.20;;;2.40;;
18867;SDS011;9563;49.240;9.088;2023-11-21T13:03:53;2.88;;;2.10;;
18867;SDS011;9563;49.240;9.088;2023-11-21T13:06:20;4.13;;;2.30;;
18867;SDS011;9563;49.240;9.088;2023-11-21T13:08:50;2.40;;;1.83;;
18867;SDS011;9563;49.240;9.088;2023-11-21T13:11:17;3.63;;;2.10;;
18867;SDS011;9563;49.240;9.088;2023-11-21T13:13:44;3.03;;;2.30;;
18867;SDS011;9563;49.240;9.088;2023-11-21T13:16:13;3.67;;;2.10;;
18867;SDS011;9563;49.240;9.088;2023-11-21T13:18:40;3.47;;;2.27;;
18867;SDS011;9563;49.240;9.088;2023-11-21T13:21:09;4.20;;;2.40;;
18867;SDS011;9563;49.240;9.088;2023-11-21T13:23:38;2.95;;;2.45;;
18867;SDS011;9563;49.240;9.088;2023-11-21T13:26:06;5.78;;;2.47;;
18867;SDS011;9563;49.240;9.088;2023-11-21T13:28:36;4.00;;;2.25;;
18867;SDS011;9563;49.240;9.088;2023-11-21T13:31:05;7.00;;;3.20;;
18867;SDS011;9563;49.240;9.088;2023-11-21T13:33:47;3.85;;;2.70;;
18867;SDS011;9563;49.240;9.088;2023-11-21T13:36:20;3.40;;;2.08;;
18867;SDS011;9563;49.240;9.088;2023-11-21T13:38:48;3.47;;;2.42;;
18867;SDS011;9563;49.240;9.088;2023-11-21T13:41:17;6.25;;;3.13;;
18867;SDS011;9563;49.240;9.088;2023-11-21T13:43:44;4.10;;;2.30;;
18867;SDS011;9563;49.240;9.088;2023-11-21T13:46:17;4.47;;;2.70;;
18867;SDS011;9563;49.240;9.088;2023-11-21T13:48:48;4.32;;;2.58;;
18867;SDS011;9563;49.240;9.088;2023-11-21T13:51:20;3.47;;;2.50;;
18867;SDS011;9563;49.240;9.088;2023-11-21T13:53:56;5.18;;;3.75;;
18867;SDS011;9563;49.240;9.088;2023-11-21T13:56:24;4.90;;;3.47;;
18867;SDS011;9563;49.240;9.088;2023-11-21T13:58:53;4.90;;;2.90;;
18867;SDS011;9563;49.240;9.088;2023-11-21T14:01:21;5.30;;;3.03;;
18867;SDS011;9563;49.240;9.088;2023-11-21T14:04:11;3.83;;;2.40;;
18867;SDS011;9563;49.240;9.088;2023-11-21T14:06:45;4.40;;;2.42;;
18867;SDS011;9563;49.240;9.088;2023-11-21T14:09:14;3.57;;;2.30;;
18867;SDS011;9563;49.240;9.088;2023-11-21T14:11:47;5.23;;;2.57;;
18867;SDS011;9563;49.240;9.088;2023-11-21T14:14:16;6.77;;;2.50;;
18867;SDS011;9563;49.240;9.088;2023-11-21T14:16:50;5.22;;;1.92;;
18867;SDS011;9563;49.240;9.088;2023-11-21T14:19:18;3.43;;;2.27;;
18867;SDS011;9563;49.240;9.088;2023-11-21T14:21:46;5.10;;;2.40;;
18867;SDS011;9563;49.240;9.088;2023-11-21T14:24:13;5.90;;;2.90;;
18867;SDS011;9563;49.240;9.088;2023-11-21T14:26:43;5.50;;;3.28;;
18867;SDS011;9563;49.240;9.088;2023-11-21T14:29:11;4.13;;;2.20;;
18867;SDS011;9563;49.240;9.088;2023-11-21T14:31:39;4.40;;;1.90;;
18867;SDS011;9563;49.240;9.088;2023-11-21T14:34:07;5.67;;;1.90;;
18867;SDS011;9563;49.240;9.088;2023-11-21T14:36:35;12.10;;;6.73;;
18867;SDS011;9563;49.240;9.088;2023-11-21T14:39:04;16.30;;;8.68;;
18867;SDS011;9563;49.240;9.088;2023-11-21T14:41:34;4.50;;;2.95;;
18867;SDS011;9563;49.240;9.088;2023-11-21T14:44:03;4.95;;;2.20;;
18867;SDS011;9563;49.240;9.088;2023-11-21T14:46:32;5.30;;;1.60;;
18867;SDS011;9563;49.240;9.088;2023-11-21T14:49:01;2.78;;;1.48;;
18867;SDS011;9563;49.240;9.088;2023-11-21T14:51:46;2.60;;;1.52;;
18867;SDS011;9563;49.240;9.088;2023-11-21T14:54:25;9.13;;;1.93;;
18867;SDS011;9563;49.240;9.088;2023-11-21T14:57:05;6.43;;;2.00;;
18867;SDS011;9563;49.240;9.088;2023-11-21T14:59:36;3.83;;;1.43;;
18867;SDS011;9563;49.240;9.088;2023-11-21T15:02:02;4.43;;;1.60;;
18867;SDS011;9563;49.240;9.088;2023-11-21T15:04:40;5.53;;;1.80;;
18867;SDS011;9563;49.240;9.088;2023-11-21T15:07:08;3.83;;;1.37;;
18867;SDS011;9563;49.240;9.088;2023-11-21T15:09:37;3.50;;;1.40;;
18867;SDS011;9563;49.240;9.088;2023-11-21T15:12:08;2.33;;;1.23;;
18867;SDS011;9563;49.240;9.088;2023-11-21T15:14:42;4.73;;;1.57;;
18867;SDS011;9563;49.240;9.088;2023-11-21T15:17:10;2.17;;;1.25;;
18867;SDS011;9563;49.240;9.088;2023-11-21T15:19:40;2.90;;;1.10;;
18867;SDS011;9563;49.240;9.088;2023-11-21T15:22:10;2.33;;;1.00;;
18867;SDS011;9563;49.240;9.088;2023-11-21T15:24:40;2.23;;;1.27;;
18867;SDS011;9563;49.240;9.088;2023-11-21T15:27:09;1.67;;;1.40;;
18867;SDS011;9563;49.240;9.088;2023-11-21T15:29:36;2.83;;;2.10;;
18867;SDS011;9563;49.240;9.088;2023-11-21T15:32:04;24.90;;;11.10;;
18867;SDS011;9563;49.240;9.088;2023-11-21T15:34:32;10.27;;;4.13;;
18867;SDS011;9563;49.240;9.088;2023-11-21T15:36:59;7.20;;;3.03;;
18867;SDS011;9563;49.240;9.088;2023-11-21T15:39:27;7.23;;;3.73;;
18867;SDS011;9563;49.240;9.088;2023-11-21T15:41:55;11.50;;;4.93;;
18867;SDS011;9563;49.240;9.088;2023-11-21T15:44:22;10.13;;;5.57;;
18867;SDS011;9563;49.240;9.088;2023-11-21T15:46:51;6.40;;;3.70;;
18867;SDS011;9563;49.240;9.088;2023-11-21T15:49:17;3.87;;;2.10;;
18867;SDS011;9563;49.240;9.088;2023-11-21T15:51:47;2.87;;;1.60;;
18867;SDS011;9563;49.240;9.088;2023-11-21T15:54:20;3.87;;;1.70;;
18867;SDS011;9563;49.240;9.088;2023-11-21T15:56:48;5.50;;;1.80;;
18867;SDS011;9563;49.240;9.088;2023-11-21T15:59:15;6.37;;;1.40;;
18867;SDS011;9563;49.240;9.088;2023-11-21T16:01:42;5.07;;;1.70;;
18867;SDS011;9563;49.240;9.088;2023-11-21T16:04:12;2.03;;;1.60;;
18867;SDS011;9563;49.240;9.088;2023-11-21T16:06:41;4.18;;;1.73;;
18867;SDS011;9563;49.240;9.088;2023-11-21T16:09:08;5.67;;;1.70;;
18867;SDS011;9563;49.240;9.088;2023-11-21T16:11:47;2.63;;;1.63;;
18867;SDS011;9563;49.240;9.088;2023-11-21T16:14:16;4.03;;;2.20;;
18867;SDS011;9563;49.240;9.088;2023-11-21T16:16:44;5.67;;;2.27;;
18867;SDS011;9563;49.240;9.088;2023-11-21T16:19:11;4.77;;;1.83;;
18867;SDS011;9563;49.240;9.088;2023-11-21T16:21:38;5.73;;;2.23;;
18867;SDS011;9563;49.240;9.088;2023-11-21T16:24:05;7.23;;;3.07;;
18867;SDS011;9563;49.240;9.088;2023-11-21T16:26:33;3.80;;;1.90;;
18867;SDS011;9563;49.240;9.088;2023-11-21T16:29:02;3.47;;;2.20;;
18867;SDS011;9563;49.240;9.088;2023-11-21T16:31:29;4.63;;;2.43;;
18867;SDS011;9563;49.240;9.088;2023-11-21T16:33:58;6.87;;;2.70;;
18867;SDS011;9563;49.240;9.088;2023-11-21T16:36:25;4.67;;;2.70;;
18867;SDS011;9563;49.240;9.088;2023-11-21T16:38:51;4.13;;;1.97;;
18867;SDS011;9563;49.240;9.088;2023-11-21T16:41:19;5.53;;;1.90;;
18867;SDS011;9563;49.240;9.088;2023-11-21T16:43:45;3.63;;;2.37;;
18867;SDS011;9563;49.240;9.088;2023-11-21T16:56:34;6.43;;;1.90;;
18867;SDS011;9563;49.240;9.088;2023-11-21T16:59:02;5.90;;;2.40;;
18867;SDS011;9563;49.240;9.088;2023-11-21T17:01:29;3.63;;;2.03;;
18867;SDS011;9563;49.240;9.088;2023-11-21T17:03:56;6.03;;;2.03;;
18867;SDS011;9563;49.240;9.088;2023-11-21T17:06:24;7.00;;;2.07;;
18867;SDS011;9563;49.240;9.088;2023-11-21T17:08:51;5.05;;;2.00;;
18867;SDS011;9563;49.240;9.088;2023-11-21T17:11:18;4.67;;;2.33;;
18867;SDS011;9563;49.240;9.088;2023-11-21T17:13:47;6.47;;;2.80;;
18867;SDS011;9563;49.240;9.088;2023-11-21T17:16:14;4.17;;;2.13;;
18867;SDS011;9563;49.240;9.088;2023-11-21T17:18:42;4.07;;;2.10;;
18867;SDS011;9563;49.240;9.088;2023-11-21T17:21:09;4.83;;;2.13;;
18867;SDS011;9563;49.240;9.088;2023-11-21T17:23:36;4.63;;;2.13;;
18867;SDS011;9563;49.240;9.088;2023-11-21T17:26:03;5.43;;;2.20;;
18867;SDS011;9563;49.240;9.088;2023-11-21T17:28:31;4.70;;;2.10;;
18867;SDS011;9563;49.240;9.088;2023-11-21T17:30:59;4.73;;;2.17;;
18867;SDS011;9563;49.240;9.088;2023-11-21T17:33:26;5.10;;;2.20;;
18867;SDS011;9563;49.240;9.088;2023-11-21T17:35:54;7.00;;;2.27;;
18867;SDS011;9563;49.240;9.088;2023-11-21T17:38:21;5.77;;;2.77;;
18867;SDS011;9563;49.240;9.088;2023-11-21T17:40:48;9.20;;;2.50;;
18867;SDS011;9563;49.240;9.088;2023-11-21T17:43:15;5.77;;;2.17;;
18867;SDS011;9563;49.240;9.088;2023-11-21T17:45:42;10.57;;;2.40;;
18867;SDS011;9563;49.240;9.088;2023-11-21T17:48:11;6.77;;;2.97;;
18867;SDS011;9563;49.240;9.088;2023-11-21T17:50:38;6.87;;;2.80;;
18867;SDS011;9563;49.240;9.088;2023-11-21T17:53:05;10.97;;;2.90;;
18867;SDS011;9563;49.240;9.088;2023-11-21T17:55:33;6.87;;;2.83;;
18867;SDS011;9563;49.240;9.088;2023-11-21T17:58:00;7.17;;;3.20;;
18867;SDS011;9563;49.240;9.088;2023-11-21T18:00:27;5.53;;;2.20;;
18867;SDS011;9563;49.240;9.088;2023-11-21T18:02:54;7.20;;;2.83;;
18867;SDS011;9563;49.240;9.088;2023-11-21T18:05:25;7.47;;;2.40;;
18867;SDS011;9563;49.240;9.088;2023-11-21T18:07:52;9.50;;;3.30;;
18867;SDS011;9563;49.240;9.088;2023-11-21T18:10:19;8.90;;;3.33;;
18867;SDS011;9563;49.240;9.088;2023-11-21T18:12:47;14.27;;;3.07;;
18867;SDS011;9563;49.240;9.088;2023-11-21T18:15:14;10.10;;;2.77;;
18867;SDS011;9563;49.240;9.088;2023-11-21T18:17:43;12.40;;;3.10;;
18867;SDS011;9563;49.240;9.088;2023-11-21T18:20:11;10.57;;;3.10;;
18867;SDS011;9563;49.240;9.088;2023-11-21T18:22:39;10.23;;;2.90;;
18867;SDS011;9563;49.240;9.088;2023-11-21T18:25:06;5.33;;;2.67;;
18867;SDS011;9563;49.240;9.088;2023-11-21T18:27:33;9.33;;;2.80;;
18867;SDS011;9563;49.240;9.088;2023-11-21T18:30:00;9.13;;;2.50;;
18867;SDS011;9563;49.240;9.088;2023-11-21T18:32:28;6.40;;;2.50;;
18867;SDS011;9563;49.240;9.088;2023-11-21T18:34:55;7.67;;;2.60;;
18867;SDS011;9563;49.240;9.088;2023-11-21T18:37:22;7.57;;;3.87;;
18867;SDS011;9563;49.240;9.088;2023-11-21T18:39:51;7.83;;;3.17;;
18867;SDS011;9563;49.240;9.088;2023-11-21T18:42:18;8.50;;;2.80;;
18867;SDS011;9563;49.240;9.088;2023-11-21T18:44:46;6.53;;;2.50;;
18867;SDS011;9563;49.240;9.088;2023-11-21T18:47:14;7.97;;;2.80;;
18867;SDS011;9563;49.240;9.088;2023-11-21T18:49:41;6.73;;;2.80;;
18867;SDS011;9563;49.240;9.088;2023-11-21T18:52:10;8.83;;;3.00;;
18867;SDS011;9563;49.240;9.088;2023-11-21T18:54:40;4.27;;;2.87;;
18867;SDS011;9563;49.240;9.088;2023-11-21T18:57:09;10.30;;;3.23;;
18867;SDS011;9563;49.240;9.088;2023-11-21T18:59:39;4.93;;;2.50;;
18867;SDS011;9563;49.240;9.088;2023-11-21T19:02:07;5.77;;;2.70;;
18867;SDS011;9563;49.240;9.088;2023-11-21T19:04:38;7.57;;;3.10;;
18867;SDS011;9563;49.240;9.088;2023-11-21T19:07:06;8.13;;;3.00;;
18867;SDS011;9563;49.240;9.088;2023-11-21T19:09:34;7.77;;;2.87;;
18867;SDS011;9563;49.240;9.088;2023-11-21T19:12:01;10.10;;;3.80;;
18867;SDS011;9563;49.240;9.088;2023-11-21T19:14:30;8.87;;;3.40;;
18867;SDS011;9563;49.240;9.088;2023-11-21T19:16:57;7.30;;;3.40;;
18867;SDS011;9563;49.240;9.088;2023-11-21T19:19:24;6.67;;;2.87;;
18867;SDS011;9563;49.240;9.088;2023-11-21T19:21:51;6.83;;;3.20;;
18867;SDS011;9563;49.240;9.088;2023-11-21T19:24:18;9.37;;;3.20;;
18867;SDS011;9563;49.240;9.088;2023-11-21T19:26:45;8.83;;;3.97;;
18867;SDS011;9563;49.240;9.088;2023-11-21T19:29:12;8.13;;;3.60;;
18867;SDS011;9563;49.240;9.088;2023-11-21T19:31:41;9.83;;;3.57;;
18867;SDS011;9563;49.240;9.088;2023-11-21T19:34:07;8.20;;;4.57;;
18867;SDS011;9563;49.240;9.088;2023-11-21T19:36:38;12.03;;;4.73;;
18867;SDS011;9563;49.240;9.088;2023-11-21T19:39:06;10.67;;;4.77;;
18867;SDS011;9563;49.240;9.088;2023-11-21T19:41:33;9.63;;;4.30;;
18867;SDS011;9563;49.240;9.088;2023-11-21T19:44:01;7.70;;;4.57;;
18867;SDS011;9563;49.240;9.088;2023-11-21T19:46:28;7.07;;;3.47;;
18867;SDS011;9563;49.240;9.088;2023-11-21T19:48:56;11.57;;;4.13;;
18867;SDS011;9563;49.240;9.088;2023-11-21T19:51:23;9.17;;;4.03;;
18867;SDS011;9563;49.240;9.088;2023-11-21T19:53:51;13.27;;;5.20;;
18867;SDS011;9563;49.240;9.088;2023-11-21T19:56:19;11.80;;;4.83;;
18867;SDS011;9563;49.240;9.088;2023-11-21T19:58:49;9.97;;;4.37;;
18867;SDS011;9563;49.240;9.088;2023-11-21T20:01:17;8.93;;;4.50;;
18867;SDS011;9563;49.240;9.088;2023-11-21T20:03:44;11.33;;;4.03;;
18867;SDS011;9563;49.240;9.088;2023-11-21T20:06:13;9.43;;;4.20;;
18867;SDS011;9563;49.240;9.088;2023-11-21T20:08:40;10.13;;;3.60;;
18867;SDS011;9563;49.240;9.088;2023-11-21T20:11:07;9.30;;;3.90;;
18867;SDS011;9563;49.240;9.088;2023-11-21T20:13:35;10.60;;;4.13;;
18867;SDS011;9563;49.240;9.088;2023-11-21T20:16:01;8.43;;;3.20;;
18867;SDS011;9563;49.240;9.088;2023-11-21T20:18:28;11.13;;;4.10;;
18867;SDS011;9563;49.240;9.088;2023-11-21T20:20:55;7.27;;;3.73;;
18867;SDS011;9563;49.240;9.088;2023-11-21T20:23:24;9.57;;;3.13;;